sensor_id;sensor_type;location;lat;lon;timestamp;pressure;altitude;pressure_sealevel;temperature;humidity
6565;BME280;3316;44.118;27.258;2023-01-15T00:01:27;101926.53;;;4.79;100.00
6565;BME280;3316;44.118;27.258;2023-01-15T00:03:54;101921.97;;;4.72;100.00
6565;BME280;3316;44.118;27.258;2023-01-15T00:06:20;101911.78;;;4.54;100.00
6565;BME280;3316;44.118;27.258;2023-01-15T00:08:46;101916.75;;;4.46;100.00
6565;BME280;3316;44.118;27.258;2023-01-15T00:11:12;101912.09;;;4.38;100.00
6565;BME280;3316;44.118;27.258;2023-01-15T00:13:37;101912.41;;;4.47;100.00
6565;BME280;3316;44.118;27.258;2023-01-15T00:16:06;101913.28;;;4.47;100.00
6565;BME280;3316;44.118;27.258;2023-01-15T00:18:32;101908.06;;;4.47;100.00
6565;BME280;3316;44.118;27.258;2023-01-15T00:21:03;101891.25;;;4.38;100.00
6565;BME280;3316;44.118;27.258;2023-01-15T00:23:29;101905.44;;;4.46;100.00
6565;BME280;3316;44.118;27.258;2023-01-15T00:26:15;101909.47;;;4.38;100.00
6565;BME280;3316;44.118;27.258;2023-01-15T00:29:00;101915.63;;;4.40;100.00
6565;BME280;3316;44.118;27.258;2023-01-15T00:31:26;101879.22;;;4.18;100.00
6565;BME280;3316;44.118;27.258;2023-01-15T00:33:51;101905.63;;;4.52;100.00
6565;BME280;3316;44.118;27.258;2023-01-15T00:36:17;101912.94;;;4.62;100.00
6565;BME280;3316;44.118;27.258;2023-01-15T00:38:42;101904.00;;;4.56;100.00
6565;BME280;3316;44.118;27.258;2023-01-15T00:41:08;101913.72;;;4.60;100.00
6565;BME280;3316;44.118;27.258;2023-01-15T00:43:33;101914.75;;;4.65;100.00
6565;BME280;3316;44.118;27.258;2023-01-15T00:45:59;101910.59;;;4.70;100.00
6565;BME280;3316;44.118;27.258;2023-01-15T00:48:24;101908.69;;;4.91;100.00
6565;BME280;3316;44.118;27.258;2023-01-15T00:50:49;101909.22;;;4.81;100.00
6565;BME280;3316;44.118;27.258;2023-01-15T00:53:15;101892.94;;;4.63;100.00
6565;BME280;3316;44.118;27.258;2023-01-15T00:55:41;101900.25;;;4.73;100.00
6565;BME280;3316;44.118;27.258;2023-01-15T00:58:06;101904.53;;;4.71;100.00
6565;BME280;3316;44.118;27.258;2023-01-15T01:00:32;101914.44;;;4.81;100.00
6565;BME280;3316;44.118;27.258;2023-01-15T01:02:57;101916.56;;;4.92;100.00
6565;BME280;3316;44.118;27.258;2023-01-15T01:05:22;101924.03;;;4.82;100.00
6565;BME280;3316;44.118;27.258;2023-01-15T01:07:48;101916.22;;;4.82;100.00
6565;BME280;3316;44.118;27.258;2023-01-15T01:10:15;101896.91;;;4.77;100.00
6565;BME280;3316;44.118;27.258;2023-01-15T01:12:41;101913.53;;;4.80;100.00
6565;BME280;3316;44.118;27.258;2023-01-15T01:15:06;101892.22;;;4.67;100.00
6565;BME280;3316;44.118;27.258;2023-01-15T01:17:36;101871.81;;;4.53;100.00
6565;BME280;3316;44.118;27.258;2023-01-15T01:20:02;101906.56;;;4.79;100.00
6565;BME280;3316;44.118;27.258;2023-01-15T01:22:28;101916.34;;;4.86;100.00
6565;BME280;3316;44.118;27.258;2023-01-15T01:24:54;101867.38;;;4.51;100.00
6565;BME280;3316;44.118;27.258;2023-01-15T01:27:19;101906.34;;;4.73;100.00
6565;BME280;3316;44.118;27.258;2023-01-15T01:29:44;101918.75;;;4.80;100.00
6565;BME280;3316;44.118;27.258;2023-01-15T01:32:10;101900.38;;;4.76;100.00
6565;BME280;3316;44.118;27.258;2023-01-15T01:34:35;101896.09;;;4.78;100.00
6565;BME280;3316;44.118;27.258;2023-01-15T01:37:01;101892.13;;;4.64;100.00
6565;BME280;3316;44.118;27.258;2023-01-15T01:39:26;101898.88;;;4.59;100.00
6565;BME280;3316;44.118;27.258;2023-01-15T01:41:52;101901.25;;;4.51;100.00
6565;BME280;3316;44.118;27.258;2023-01-15T01:47:06;101903.97;;;4.54;100.00
6565;BME280;3316;44.118;27.258;2023-01-15T01:49:32;101876.81;;;4.47;100.00
6565;BME280;3316;44.118;27.258;2023-01-15T01:52:08;101907.56;;;4.58;100.00
6565;BME280;3316;44.118;27.258;2023-01-15T01:54:37;101904.22;;;4.62;100.00
6565;BME280;3316;44.118;27.258;2023-01-15T01:57:03;101889.97;;;4.50;100.00
6565;BME280;3316;44.118;27.258;2023-01-15T01:59:31;101847.94;;;4.16;100.00
6565;BME280;3316;44.118;27.258;2023-01-15T02:01:57;101899.53;;;4.51;100.00
6565;BME280;3316;44.118;27.258;2023-01-15T02:04:25;101891.66;;;4.50;100.00
6565;BME280;3316;44.118;27.258;2023-01-15T02:06:52;101849.84;;;4.22;100.00
6565;BME280;3316;44.118;27.258;2023-01-15T02:09:18;101882.75;;;4.43;100.00
6565;BME280;3316;44.118;27.258;2023-01-15T02:11:43;101838.81;;;4.29;100.00
6565;BME280;3316;44.118;27.258;2023-01-15T02:14:20;101870.94;;;4.54;100.00
6565;BME280;3316;44.118;27.258;2023-01-15T02:17:08;101885.78;;;4.56;100.00
6565;BME280;3316;44.118;27.258;2023-01-15T02:20:11;101885.25;;;4.66;100.00
6565;BME280;3316;44.118;27.258;2023-01-15T02:23:03;101890.56;;;4.69;100.00
6565;BME280;3316;44.118;27.258;2023-01-15T02:28:32;101887.03;;;4.68;100.00
6565;BME280;3316;44.118;27.258;2023-01-15T02:31:11;101881.91;;;4.70;100.00
6565;BME280;3316;44.118;27.258;2023-01-15T02:33:44;101887.03;;;4.68;100.00
6565;BME280;3316;44.118;27.258;2023-01-15T02:36:14;101873.16;;;4.68;100.00
6565;BME280;3316;44.118;27.258;2023-01-15T02:38:44;101870.75;;;4.74;100.00
6565;BME280;3316;44.118;27.258;2023-01-15T02:41:11;101852.06;;;4.60;100.00
6565;BME280;3316;44.118;27.258;2023-01-15T02:43:45;101856.53;;;4.64;100.00
6565;BME280;3316;44.118;27.258;2023-01-15T02:46:13;101856.53;;;4.64;100.00
6565;BME280;3316;44.118;27.258;2023-01-15T02:48:41;101849.31;;;4.57;100.00
6565;BME280;3316;44.118;27.258;2023-01-15T02:51:13;101864.63;;;4.46;100.00
6565;BME280;3316;44.118;27.258;2023-01-15T02:53:41;101855.19;;;4.50;100.00
6565;BME280;3316;44.118;27.258;2023-01-15T02:56:10;101840.16;;;4.43;100.00
6565;BME280;3316;44.118;27.258;2023-01-15T02:58:38;101846.16;;;4.40;100.00
6565;BME280;3316;44.118;27.258;2023-01-15T03:01:15;101848.22;;;4.25;100.00
6565;BME280;3316;44.118;27.258;2023-01-15T03:03:51;101841.94;;;4.19;100.00
6565;BME280;3316;44.118;27.258;2023-01-15T03:06:50;101859.50;;;4.24;100.00
6565;BME280;3316;44.118;27.258;2023-01-15T03:09:20;101864.72;;;4.24;100.00
6565;BME280;3316;44.118;27.258;2023-01-15T03:12:03;101862.78;;;4.19;100.00
6565;BME280;3316;44.118;27.258;2023-01-15T03:17:33;101851.91;;;4.30;100.00
6565;BME280;3316;44.118;27.258;2023-01-15T03:20:15;101781.31;;;3.98;100.00
6565;BME280;3316;44.118;27.258;2023-01-15T03:22:44;101839.78;;;4.31;100.00
6565;BME280;3316;44.118;27.258;2023-01-15T03:25:24;101844.22;;;4.35;100.00
6565;BME280;3316;44.118;27.258;2023-01-15T03:27:52;101800.66;;;4.06;100.00
6565;BME280;3316;44.118;27.258;2023-01-15T03:30:21;101844.97;;;4.31;100.00
6565;BME280;3316;44.118;27.258;2023-01-15T03:32:47;101838.19;;;4.36;100.00
6565;BME280;3316;44.118;27.258;2023-01-15T03:35:46;101842.72;;;4.41;100.00
6565;BME280;3316;44.118;27.258;2023-01-15T03:38:16;101835.66;;;4.39;100.00
6565;BME280;3316;44.118;27.258;2023-01-15T03:54:22;101831.06;;;4.30;100.00
6565;BME280;3316;44.118;27.258;2023-01-15T03:56:55;101798.19;;;4.09;100.00
6565;BME280;3316;44.118;27.258;2023-01-15T03:59:29;101821.97;;;4.19;100.00
6565;BME280;3316;44.118;27.258;2023-01-15T04:01:57;101833.63;;;4.29;100.00
6565;BME280;3316;44.118;27.258;2023-01-15T04:04:25;101841.59;;;4.35;100.00
6565;BME280;3316;44.118;27.258;2023-01-15T04:06:50;101824.91;;;4.28;100.00
6565;BME280;3316;44.118;27.258;2023-01-15T04:09:17;101833.78;;;4.35;100.00
6565;BME280;3316;44.118;27.258;2023-01-15T04:11:43;101837.50;;;4.41;100.00
6565;BME280;3316;44.118;27.258;2023-01-15T04:14:11;101804.38;;;4.12;100.00
6565;BME280;3316;44.118;27.258;2023-01-15T04:16:37;101841.00;;;4.42;100.00
6565;BME280;3316;44.118;27.258;2023-01-15T04:19:03;101840.38;;;4.24;100.00
6565;BME280;3316;44.118;27.258;2023-01-15T04:21:28;101836.34;;;4.08;100.00
6565;BME280;3316;44.118;27.258;2023-01-15T04:23:55;101814.53;;;4.05;100.00
6565;BME280;3316;44.118;27.258;2023-01-15T04:26:20;101865.66;;;4.26;100.00
6565;BME280;3316;44.118;27.258;2023-01-15T04:28:46;101857.72;;;4.23;100.00
6565;BME280;3316;44.118;27.258;2023-01-15T04:31:11;101845.53;;;4.22;100.00
6565;BME280;3316;44.118;27.258;2023-01-15T04:33:37;101850.84;;;4.25;100.00
6565;BME280;3316;44.118;27.258;2023-01-15T04:36:04;101850.03;;;4.26;100.00
6565;BME280;3316;44.118;27.258;2023-01-15T04:38:30;101858.66;;;4.25;100.00
6565;BME280;3316;44.118;27.258;2023-01-15T04:41:00;101864.66;;;4.23;100.00
6565;BME280;3316;44.118;27.258;2023-01-15T04:43:44;101854.28;;;4.24;100.00
6565;BME280;3316;44.118;27.258;2023-01-15T04:46:28;101859.66;;;4.29;100.00
6565;BME280;3316;44.118;27.258;2023-01-15T04:48:53;101867.50;;;4.29;100.00
6565;BME280;3316;44.118;27.258;2023-01-15T04:51:18;101866.41;;;4.24;100.00
6565;BME280;3316;44.118;27.258;2023-01-15T04:53:44;101834.72;;;4.12;100.00
6565;BME280;3316;44.118;27.258;2023-01-15T04:56:09;101874.50;;;4.31;100.00
6565;BME280;3316;44.118;27.258;2023-01-15T04:58:35;101867.56;;;4.32;100.00
6565;BME280;3316;44.118;27.258;2023-01-15T05:01:00;101880.59;;;4.32;100.00
6565;BME280;3316;44.118;27.258;2023-01-15T05:03:30;101862.84;;;4.20;100.00
6565;BME280;3316;44.118;27.258;2023-01-15T05:06:00;101867.09;;;4.18;100.00
6565;BME280;3316;44.118;27.258;2023-01-15T05:08:26;101853.78;;;4.09;100.00
6565;BME280;3316;44.118;27.258;2023-01-15T05:10:52;101880.97;;;4.17;100.00
6565;BME280;3316;44.118;27.258;2023-01-15T05:13:17;101870.44;;;4.14;100.00
6565;BME280;3316;44.118;27.258;2023-01-15T05:15:43;101880.81;;;4.13;100.00
6565;BME280;3316;44.118;27.258;2023-01-15T05:18:13;101871.31;;;4.15;100.00
6565;BME280;3316;44.118;27.258;2023-01-15T05:20:42;101867.00;;;4.15;100.00
6565;BME280;3316;44.118;27.258;2023-01-15T05:23:07;101874.81;;;4.15;100.00
6565;BME280;3316;44.118;27.258;2023-01-15T05:25:35;101866.00;;;4.12;100.00
6565;BME280;3316;44.118;27.258;2023-01-15T05:28:01;101859.91;;;4.11;100.00
6565;BME280;3316;44.118;27.258;2023-01-15T05:30:26;101870.56;;;4.17;100.00
6565;BME280;3316;44.118;27.258;2023-01-15T05:32:52;101870.47;;;4.16;100.00
6565;BME280;3316;44.118;27.258;2023-01-15T05:35:17;101863.13;;;4.04;100.00
6565;BME280;3316;44.118;27.258;2023-01-15T05:37:43;101875.47;;;4.10;100.00
6565;BME280;3316;44.118;27.258;2023-01-15T05:40:09;101860.19;;;3.95;100.00
6565;BME280;3316;44.118;27.258;2023-01-15T05:42:34;101852.13;;;3.88;100.00
6565;BME280;3316;44.118;27.258;2023-01-15T05:45:00;101845.53;;;3.97;100.00
6565;BME280;3316;44.118;27.258;2023-01-15T05:47:25;101866.34;;;3.97;100.00
6565;BME280;3316;44.118;27.258;2023-01-15T05:49:50;101862.09;;;3.99;100.00
6565;BME280;3316;44.118;27.258;2023-01-15T05:52:16;101867.44;;;4.04;100.00
6565;BME280;3316;44.118;27.258;2023-01-15T05:54:42;101864.22;;;4.11;100.00
6565;BME280;3316;44.118;27.258;2023-01-15T05:57:10;101863.59;;;4.18;100.00
6565;BME280;3316;44.118;27.258;2023-01-15T05:59:37;101874.91;;;4.18;100.00
6565;BME280;3316;44.118;27.258;2023-01-15T06:02:03;101876.88;;;4.25;100.00
6565;BME280;3316;44.118;27.258;2023-01-15T06:04:29;101872.34;;;4.20;100.00
6565;BME280;3316;44.118;27.258;2023-01-15T06:06:55;101878.69;;;4.26;100.00
6565;BME280;3316;44.118;27.258;2023-01-15T06:09:21;101876.34;;;4.34;100.00
6565;BME280;3316;44.118;27.258;2023-01-15T06:11:47;101877.94;;;4.30;100.00
6565;BME280;3316;44.118;27.258;2023-01-15T06:14:14;101869.28;;;4.31;100.00
6565;BME280;3316;44.118;27.258;2023-01-15T06:16:39;101881.81;;;4.41;100.00
6565;BME280;3316;44.118;27.258;2023-01-15T06:19:06;101864.50;;;4.43;100.00
6565;BME280;3316;44.118;27.258;2023-01-15T06:21:33;101873.91;;;4.38;100.00
6565;BME280;3316;44.118;27.258;2023-01-15T06:23:59;101868.44;;;4.31;100.00
6565;BME280;3316;44.118;27.258;2023-01-15T06:26:25;101872.03;;;4.34;100.00
6565;BME280;3316;44.118;27.258;2023-01-15T06:28:51;101871.06;;;4.32;100.00
6565;BME280;3316;44.118;27.258;2023-01-15T06:31:19;101860.22;;;4.20;100.00
6565;BME280;3316;44.118;27.258;2023-01-15T06:33:45;101865.66;;;4.26;100.00
6565;BME280;3316;44.118;27.258;2023-01-15T06:36:16;101818.06;;;4.07;100.00
6565;BME280;3316;44.118;27.258;2023-01-15T06:38:42;101869.38;;;4.33;100.00
6565;BME280;3316;44.118;27.258;2023-01-15T06:41:11;101851.91;;;4.30;100.00
6565;BME280;3316;44.118;27.258;2023-01-15T06:43:56;101862.41;;;4.33;100.00
6565;BME280;3316;44.118;27.258;2023-01-15T06:46:44;101863.34;;;4.35;100.00
6565;BME280;3316;44.118;27.258;2023-01-15T06:49:28;101861.22;;;4.24;100.00
6565;BME280;3316;44.118;27.258;2023-01-15T06:51:54;101860.44;;;4.26;100.00
6565;BME280;3316;44.118;27.258;2023-01-15T06:54:19;101864.59;;;4.21;100.00
6565;BME280;3316;44.118;27.258;2023-01-15T06:56:45;101869.41;;;4.34;100.00
6565;BME280;3316;44.118;27.258;2023-01-15T06:59:10;101793.31;;;3.94;100.00
6565;BME280;3316;44.118;27.258;2023-01-15T07:01:35;101811.28;;;4.12;100.00
6565;BME280;3316;44.118;27.258;2023-01-15T07:04:01;101871.16;;;4.35;100.00
6565;BME280;3316;44.118;27.258;2023-01-15T07:06:26;101857.19;;;4.33;100.00
6565;BME280;3316;44.118;27.258;2023-01-15T07:08:52;101864.63;;;4.46;100.00
6565;BME280;3316;44.118;27.258;2023-01-15T07:11:17;101863.41;;;4.37;100.00
6565;BME280;3316;44.118;27.258;2023-01-15T07:13:43;101868.72;;;4.40;100.00
6565;BME280;3316;44.118;27.258;2023-01-15T07:16:08;101862.78;;;4.44;100.00
6565;BME280;3316;44.118;27.258;2023-01-15T07:18:51;101867.53;;;4.56;100.00
6565;BME280;3316;44.118;27.258;2023-01-15T07:21:18;101851.88;;;4.56;100.00
6565;BME280;3316;44.118;27.258;2023-01-15T07:23:43;101846.19;;;4.67;100.00
6565;BME280;3316;44.118;27.258;2023-01-15T07:26:08;101849.72;;;4.69;100.00
6565;BME280;3316;44.118;27.258;2023-01-15T07:28:34;101844.88;;;4.80;100.00
6565;BME280;3316;44.118;27.258;2023-01-15T07:30:59;101821.22;;;4.74;100.00
6565;BME280;3316;44.118;27.258;2023-01-15T07:33:25;101839.00;;;4.87;100.00
6565;BME280;3316;44.118;27.258;2023-01-15T07:35:50;101843.38;;;4.88;100.00
6565;BME280;3316;44.118;27.258;2023-01-15T07:38:16;101853.38;;;5.01;100.00
6565;BME280;3316;44.118;27.258;2023-01-15T07:40:41;101856.25;;;5.10;100.00
6565;BME280;3316;44.118;27.258;2023-01-15T07:43:07;101854.34;;;5.04;100.00
6565;BME280;3316;44.118;27.258;2023-01-15T07:45:52;101857.50;;;4.94;100.00
6565;BME280;3316;44.118;27.258;2023-01-15T07:48:36;101858.72;;;4.79;100.00
6565;BME280;3316;44.118;27.258;2023-01-15T07:51:20;101853.63;;;4.82;100.00
6565;BME280;3316;44.118;27.258;2023-01-15T07:53:45;101864.75;;;5.03;100.00
6565;BME280;3316;44.118;27.258;2023-01-15T07:56:10;101861.09;;;4.98;100.00
6565;BME280;3316;44.118;27.258;2023-01-15T07:58:36;101866.31;;;4.98;100.00
6565;BME280;3316;44.118;27.258;2023-01-15T08:01:02;101863.84;;;5.02;100.00
6565;BME280;3316;44.118;27.258;2023-01-15T08:03:27;101857.78;;;5.03;100.00
6565;BME280;3316;44.118;27.258;2023-01-15T08:05:53;101870.19;;;5.10;100.00
6565;BME280;3316;44.118;27.258;2023-01-15T08:08:18;101849.09;;;5.03;100.00
6565;BME280;3316;44.118;27.258;2023-01-15T08:10:44;101869.56;;;5.19;100.00
6565;BME280;3316;44.118;27.258;2023-01-15T08:13:28;101875.50;;;5.13;100.00
6565;BME280;3316;44.118;27.258;2023-01-15T08:16:12;101860.59;;;5.09;100.00
6565;BME280;3316;44.118;27.258;2023-01-15T08:18:38;101864.31;;;5.17;100.00
6565;BME280;3316;44.118;27.258;2023-01-15T08:21:03;101865.56;;;5.28;100.00
6565;BME280;3316;44.118;27.258;2023-01-15T08:23:29;101861.94;;;5.25;100.00
6565;BME280;3316;44.118;27.258;2023-01-15T08:25:58;101848.09;;;4.99;100.00
6565;BME280;3316;44.118;27.258;2023-01-15T08:28:24;101848.28;;;5.05;100.00
6565;BME280;3316;44.118;27.258;2023-01-15T08:30:49;101858.34;;;5.21;100.00
6565;BME280;3316;44.118;27.258;2023-01-15T08:33:14;101845.22;;;5.18;100.00
6565;BME280;3316;44.118;27.258;2023-01-15T08:35:40;101861.88;;;5.22;100.00
6565;BME280;3316;44.118;27.258;2023-01-15T08:38:06;101864.44;;;5.20;100.00
6565;BME280;3316;44.118;27.258;2023-01-15T08:40:32;101865.28;;;4.93;100.00
6565;BME280;3316;44.118;27.258;2023-01-15T08:42:59;101860.25;;;4.99;100.00
6565;BME280;3316;44.118;27.258;2023-01-15T08:45:25;101859.59;;;5.06;100.00
6565;BME280;3316;44.118;27.258;2023-01-15T08:47:54;101839.25;;;4.94;100.00
6565;BME280;3316;44.118;27.258;2023-01-15T08:50:20;101844.06;;;5.09;100.00
6565;BME280;3316;44.118;27.258;2023-01-15T08:52:45;101847.72;;;5.15;100.00
6565;BME280;3316;44.118;27.258;2023-01-15T08:55:11;101856.69;;;5.23;100.00
6565;BME280;3316;44.118;27.258;2023-01-15T08:57:36;101856.19;;;5.36;100.00
6565;BME280;3316;44.118;27.258;2023-01-15T09:00:03;101832.59;;;5.32;100.00
6565;BME280;3316;44.118;27.258;2023-01-15T09:02:29;101779.50;;;5.02;100.00
6565;BME280;3316;44.118;27.258;2023-01-15T09:04:54;101856.50;;;5.46;100.00
6565;BME280;3316;44.118;27.258;2023-01-15T09:07:20;101831.72;;;5.31;100.00
6565;BME280;3316;44.118;27.258;2023-01-15T09:09:45;101824.06;;;5.37;100.00
6565;BME280;3316;44.118;27.258;2023-01-15T09:12:11;101827.41;;;5.33;100.00
6565;BME280;3316;44.118;27.258;2023-01-15T09:14:38;101815.78;;;5.52;100.00
6565;BME280;3316;44.118;27.258;2023-01-15T09:17:03;101822.19;;;5.62;100.00
6565;BME280;3316;44.118;27.258;2023-01-15T09:19:28;101828.47;;;5.70;100.00
6565;BME280;3316;44.118;27.258;2023-01-15T09:21:54;101822.22;;;5.63;100.00
6565;BME280;3316;44.118;27.258;2023-01-15T09:24:19;101813.88;;;5.76;100.00
6565;BME280;3316;44.118;27.258;2023-01-15T09:26:45;101695.16;;;5.32;100.00
6565;BME280;3316;44.118;27.258;2023-01-15T09:29:10;101818.78;;;5.95;100.00
6565;BME280;3316;44.118;27.258;2023-01-15T09:31:36;101804.91;;;5.96;100.00
6565;BME280;3316;44.118;27.258;2023-01-15T09:34:01;101808.50;;;6.01;100.00
6565;BME280;3316;44.118;27.258;2023-01-15T09:36:29;101801.69;;;6.06;100.00
6565;BME280;3316;44.118;27.258;2023-01-15T09:38:55;101742.63;;;5.82;100.00
6565;BME280;3316;44.118;27.258;2023-01-15T09:41:22;101798.56;;;6.21;100.00
6565;BME280;3316;44.118;27.258;2023-01-15T09:44:17;101806.41;;;6.21;100.00
6565;BME280;3316;44.118;27.258;2023-01-15T09:49:33;101778.25;;;6.09;100.00
6565;BME280;3316;44.118;27.258;2023-01-15T09:52:13;101754.34;;;5.94;100.00
6565;BME280;3316;44.118;27.258;2023-01-15T09:55:05;101792.53;;;6.22;100.00
6565;BME280;3316;44.118;27.258;2023-01-15T09:57:35;101772.19;;;6.10;100.00
6565;BME280;3316;44.118;27.258;2023-01-15T10:00:03;101781.16;;;6.20;100.00
6565;BME280;3316;44.118;27.258;2023-01-15T10:02:40;101772.59;;;6.27;100.00
6565;BME280;3316;44.118;27.258;2023-01-15T10:07:53;101776.25;;;6.34;100.00
6565;BME280;3316;44.118;27.258;2023-01-15T10:10:23;101772.09;;;6.42;100.00
6565;BME280;3316;44.118;27.258;2023-01-15T10:12:53;101755.41;;;6.37;100.00
6565;BME280;3316;44.118;27.258;2023-01-15T10:15:45;101768.25;;;6.63;100.00
6565;BME280;3316;44.118;27.258;2023-01-15T10:18:22;101766.75;;;6.73;100.00
6565;BME280;3316;44.118;27.258;2023-01-15T10:21:13;101755.69;;;6.84;100.00
6565;BME280;3316;44.118;27.258;2023-01-15T10:26:54;101740.47;;;6.67;100.00
6565;BME280;3316;44.118;27.258;2023-01-15T10:46:33;101740.50;;;7.08;100.00
6565;BME280;3316;44.118;27.258;2023-01-15T10:49:17;101745.28;;;7.28;100.00
6565;BME280;3316;44.118;27.258;2023-01-15T10:51:44;101740.84;;;7.24;100.00
6565;BME280;3316;44.118;27.258;2023-01-15T10:59:23;101696.53;;;7.34;100.00
6565;BME280;3316;44.118;27.258;2023-01-15T11:01:53;101700.38;;;7.51;100.00
6565;BME280;3316;44.118;27.258;2023-01-15T11:04:19;101721.63;;;7.66;100.00
6565;BME280;3316;44.118;27.258;2023-01-15T11:06:45;101705.72;;;7.57;100.00
6565;BME280;3316;44.118;27.258;2023-01-15T11:09:23;101700.78;;;7.72;100.00
6565;BME280;3316;44.118;27.258;2023-01-15T11:12:22;101715.22;;;7.98;100.00
6565;BME280;3316;44.118;27.258;2023-01-15T11:14:46;101708.25;;;7.99;100.00
6565;BME280;3316;44.118;27.258;2023-01-15T11:17:34;101707.69;;;8.18;100.00
6565;BME280;3316;44.118;27.258;2023-01-15T11:20:44;101703.00;;;8.51;100.00
6565;BME280;3316;44.118;27.258;2023-01-15T11:23:15;101700.28;;;9.07;100.00
6565;BME280;3316;44.118;27.258;2023-01-15T11:25:58;101697.09;;;9.32;100.00
6565;BME280;3316;44.118;27.258;2023-01-15T11:28:35;101672.31;;;9.10;100.00
6565;BME280;3316;44.118;27.258;2023-01-15T11:31:05;101677.97;;;9.45;100.00
6565;BME280;3316;44.118;27.258;2023-01-15T11:33:30;101681.44;;;10.29;100.00
6565;BME280;3316;44.118;27.258;2023-01-15T11:35:59;101693.69;;;10.32;100.00
6565;BME280;3316;44.118;27.258;2023-01-15T11:38:35;101687.84;;;9.65;100.00
6565;BME280;3316;44.118;27.258;2023-01-15T11:44:10;101682.72;;;9.01;100.00
6565;BME280;3316;44.118;27.258;2023-01-15T11:46:54;101681.56;;;8.81;100.00
6565;BME280;3316;44.118;27.258;2023-01-15T11:49:38;101662.00;;;8.58;100.00
6565;BME280;3316;44.118;27.258;2023-01-15T11:52:24;101659.09;;;8.37;100.00
6565;BME280;3316;44.118;27.258;2023-01-15T11:54:53;101650.84;;;8.16;100.00
6565;BME280;3316;44.118;27.258;2023-01-15T11:57:25;101664.16;;;8.25;100.00
6565;BME280;3316;44.118;27.258;2023-01-15T11:59:51;101667.56;;;8.24;100.00
6565;BME280;3316;44.118;27.258;2023-01-15T12:02:32;101657.91;;;8.21;100.00
6565;BME280;3316;44.118;27.258;2023-01-15T12:07:42;101660.38;;;8.09;100.00
6565;BME280;3316;44.118;27.258;2023-01-15T12:13:47;101646.94;;;7.91;100.00
6565;BME280;3316;44.118;27.258;2023-01-15T12:21:41;101621.38;;;7.76;100.00
6565;BME280;3316;44.118;27.258;2023-01-15T12:29:56;101648.69;;;7.92;100.00
6565;BME280;3316;44.118;27.258;2023-01-15T12:32:30;101640.09;;;7.97;100.00
6565;BME280;3316;44.118;27.258;2023-01-15T12:35:06;101637.38;;;7.93;100.00
6565;BME280;3316;44.118;27.258;2023-01-15T12:37:45;101635.69;;;7.98;100.00
6565;BME280;3316;44.118;27.258;2023-01-15T12:40:26;101641.03;;;8.04;100.00
6565;BME280;3316;44.118;27.258;2023-01-15T12:42:53;101631.44;;;8.04;100.00
6565;BME280;3316;44.118;27.258;2023-01-15T12:45:44;101625.09;;;7.90;100.00
6565;BME280;3316;44.118;27.258;2023-01-15T12:48:21;101631.38;;;8.00;100.00
6565;BME280;3316;44.118;27.258;2023-01-15T12:50:53;101628.56;;;7.88;100.00
6565;BME280;3316;44.118;27.258;2023-01-15T12:58:53;101629.28;;;7.78;100.00
6565;BME280;3316;44.118;27.258;2023-01-15T13:04:27;101624.75;;;7.71;100.00
6565;BME280;3316;44.118;27.258;2023-01-15T13:07:03;101569.53;;;7.57;100.00
6565;BME280;3316;44.118;27.258;2023-01-15T13:12:12;101589.09;;;7.77;100.00
6565;BME280;3316;44.118;27.258;2023-01-15T13:14:38;101620.06;;;8.04;100.00
6565;BME280;3316;44.118;27.258;2023-01-15T13:17:17;101610.31;;;7.94;100.00
6565;BME280;3316;44.118;27.258;2023-01-15T13:20:09;101604.16;;;7.92;100.00
6565;BME280;3316;44.118;27.258;2023-01-15T13:22:53;101608.53;;;7.91;100.00
6565;BME280;3316;44.118;27.258;2023-01-15T13:25:28;101609.47;;;7.95;100.00
6565;BME280;3316;44.118;27.258;2023-01-15T13:33:41;101612.97;;;7.95;100.00
6565;BME280;3316;44.118;27.258;2023-01-15T13:36:13;101611.19;;;7.93;100.00
6565;BME280;3316;44.118;27.258;2023-01-15T13:38:43;101610.38;;;7.98;100.00
6565;BME280;3316;44.118;27.258;2023-01-15T13:41:17;101605.22;;;8.01;100.00
6565;BME280;3316;44.118;27.258;2023-01-15T13:44:03;101602.53;;;7.98;100.00
6565;BME280;3316;44.118;27.258;2023-01-15T13:46:29;101603.44;;;8.00;100.00
6565;BME280;3316;44.118;27.258;2023-01-15T13:48:55;101599.00;;;7.96;100.00
6565;BME280;3316;44.118;27.258;2023-01-15T13:53:49;101583.41;;;8.05;100.00
6565;BME280;3316;44.118;27.258;2023-01-15T13:56:29;101587.88;;;8.13;100.00
6565;BME280;3316;44.118;27.258;2023-01-15T13:59:00;101589.59;;;8.10;100.00
6565;BME280;3316;44.118;27.258;2023-01-15T14:09:12;101563.81;;;7.82;100.00
6565;BME280;3316;44.118;27.258;2023-01-15T14:23:52;101559.38;;;7.77;100.00
6565;BME280;3316;44.118;27.258;2023-01-15T14:32:07;101553.69;;;7.50;100.00
6565;BME280;3316;44.118;27.258;2023-01-15T14:34:35;101541.13;;;7.29;100.00
6565;BME280;3316;44.118;27.258;2023-01-15T14:39:43;101540.00;;;7.13;100.00
6565;BME280;3316;44.118;27.258;2023-01-15T14:47:34;101540.03;;;6.70;100.00
6565;BME280;3316;44.118;27.258;2023-01-15T14:50:25;101546.97;;;6.70;100.00
6565;BME280;3316;44.118;27.258;2023-01-15T14:52:51;101553.09;;;6.70;100.00
6565;BME280;3316;44.118;27.258;2023-01-15T14:55:19;101539.09;;;6.67;100.00
6565;BME280;3316;44.118;27.258;2023-01-15T14:58:01;101549.72;;;6.76;100.00
6565;BME280;3316;44.118;27.258;2023-01-15T15:00:34;101543.59;;;6.74;100.00
6565;BME280;3316;44.118;27.258;2023-01-15T15:03:01;101542.78;;;6.78;100.00
6565;BME280;3316;44.118;27.258;2023-01-15T15:05:34;101521.63;;;6.66;100.00
6565;BME280;3316;44.118;27.258;2023-01-15T15:08:00;101552.34;;;6.76;100.00
6565;BME280;3316;44.118;27.258;2023-01-15T15:10:39;101503.97;;;6.54;100.00
6565;BME280;3316;44.118;27.258;2023-01-15T15:13:15;101537.34;;;6.67;100.00
6565;BME280;3316;44.118;27.258;2023-01-15T15:15:55;101548.84;;;6.77;100.00
6565;BME280;3316;44.118;27.258;2023-01-15T15:18:46;101548.94;;;6.80;100.00
6565;BME280;3316;44.118;27.258;2023-01-15T15:21:23;101551.66;;;6.84;100.00
6565;BME280;3316;44.118;27.258;2023-01-15T15:26:53;101532.44;;;6.84;100.00